Time;durP1;ratioP1;P1;durP2;ratioP2;P2;SDS_P1;SDS_P2;PMS_P1;PMS_P2;Temp;Humidity;BMP_temperature;BMP_pressure;BME280_temperature;BME280_humidity;BME280_pressure;Samples;Min_cycle;Max_cycle;Signal;HPM_P1;HPM_P2
2022/10/03 00:02:00;;;;;;;16.33;5.30;;;20.70;68.30;;;;;;4889278;29;20037;-73
2022/10/03 00:04:48;;;;;;;14.82;5.15;;;20.70;68.10;;;;;;4878717;29;20041;-73
2022/10/03 00:07:51;;;;;;;16.17;4.90;;;20.70;68.30;;;;;;4879678;29;20502;-73
2022/10/03 00:10:44;;;;;;;14.68;5.00;;;20.70;68.40;;;;;;4893965;29;20037;-73
2022/10/03 00:13:27;;;;;;;12.45;4.85;;;20.70;68.40;;;;;;4877680;29;20041;-73
2022/10/03 00:16:04;;;;;;;12.63;4.85;;;20.80;68.40;;;;;;4878687;29;20033;-73
2022/10/03 00:18:48;;;;;;;13.27;5.07;;;20.70;68.30;;;;;;4862675;29;20025;-73
2022/10/03 00:21:20;;;;;;;13.75;4.75;;;20.80;68.10;;;;;;4861314;29;20407;-73
2022/10/03 00:24:21;;;;;;;15.48;5.05;;;20.80;68.30;;;;;;4862580;29;20033;-74
2022/10/03 00:27:11;;;;;;;18.42;5.15;;;20.70;68.20;;;;;;4867890;29;20045;-72
2022/10/03 00:29:50;;;;;;;13.77;4.90;;;20.70;68.10;;;;;;4864853;29;20057;-73
2022/10/03 00:32:40;;;;;;;15.05;4.82;;;20.70;68.40;;;;;;4879118;29;20375;-72
2022/10/03 00:35:32;;;;;;;12.77;4.80;;;20.70;68.50;;;;;;4864056;29;20528;-73
2022/10/03 00:38:01;;;;;;;17.92;4.82;;;20.70;68.70;;;;;;4863973;29;20033;-73
2022/10/03 00:41:08;;;;;;;13.20;4.82;;;20.70;68.60;;;;;;4879799;29;20041;-72
2022/10/03 00:44:05;;;;;;;15.00;5.13;;;20.70;68.20;;;;;;4879867;29;20033;-73
2022/10/03 00:46:31;;;;;;;10.55;4.80;;;20.70;68.40;;;;;;4885204;29;20025;-72
2022/10/03 00:49:30;;;;;;;9.88;4.07;;;20.70;68.50;;;;;;4879963;29;20021;-72
2022/10/03 00:52:10;;;;;;;13.32;5.25;;;20.70;68.10;;;;;;4878690;29;20034;-72
2022/10/03 00:54:51;;;;;;;;;;;20.70;68.60;;;;;;4872233;29;20042;-72
2022/10/03 00:57:35;;;;;;;16.05;5.03;;;20.70;68.10;;;;;;4880812;29;19912;-72
2022/10/03 01:00:28;;;;;;;12.40;5.13;;;20.70;68.40;;;;;;4879811;29;20049;-71
2022/10/03 01:02:57;;;;;;;14.75;4.93;;;20.70;68.60;;;;;;4879524;29;20037;-71
2022/10/03 01:05:56;;;;;;;16.58;5.50;;;20.70;68.60;;;;;;4879705;29;20112;-72
2022/10/03 01:08:31;;;;;;;14.05;5.10;;;20.70;68.50;;;;;;4879195;29;20037;-72
2022/10/03 01:11:03;;;;;;;18.02;5.43;;;20.70;69.30;;;;;;4863983;29;20033;-72
2022/10/03 01:13:30;;;;;;;16.67;5.18;;;20.70;68.90;;;;;;4880247;29;20037;-72
2022/10/03 01:16:18;;;;;;;18.58;5.07;;;20.70;68.80;;;;;;4880319;29;20446;-73
2022/10/03 01:19:05;;;;;;;16.95;5.10;;;20.70;68.70;;;;;;4880285;29;20036;-73
2022/10/03 01:21:57;;;;;;;16.40;4.22;;;20.70;68.30;;;;;;4860224;29;20601;-81
2022/10/03 01:24:41;;;;;;;22.63;4.63;;;19.80;62.40;;;;;;4864376;29;20053;-79
2022/10/03 01:27:12;;;;;;;20.90;4.18;;;19.30;63.30;;;;;;4878635;29;20478;-80
2022/10/03 01:30:22;;;;;;;17.58;4.28;;;19.50;64.30;;;;;;4875508;29;20080;-74
2022/10/03 01:32:48;;;;;;;;;;;19.80;64.60;;;;;;4861627;29;20499;-75
2022/10/03 01:35:40;;;;;;;22.38;4.40;;;20.00;64.70;;;;;;4861454;29;19923;-74
2022/10/03 01:38:39;;;;;;;32.08;4.97;;;20.10;64.60;;;;;;4862180;29;20319;-75
2022/10/03 01:41:23;;;;;;;22.00;4.77;;;20.20;64.40;;;;;;4879986;29;20044;-75
2022/10/03 01:44:09;;;;;;;27.45;4.72;;;20.30;64.50;;;;;;4878481;29;20393;-74
2022/10/03 01:46:39;;;;;;;14.52;3.83;;;20.40;64.60;;;;;;4861193;29;20044;-74
2022/10/03 01:49:32;;;;;;;23.98;4.78;;;20.40;64.50;;;;;;4859980;29;20037;-75
2022/10/03 01:52:10;;;;;;;19.00;4.10;;;20.50;64.60;;;;;;4860316;29;20108;-75
2022/10/03 01:54:58;;;;;;;16.50;4.53;;;20.50;64.70;;;;;;4860850;29;20033;-74
2022/10/03 01:57:42;;;;;;;20.67;5.25;;;20.50;64.90;;;;;;4879414;29;20033;-75
2022/10/03 02:00:19;;;;;;;26.58;6.45;;;20.50;65.00;;;;;;4879485;29;20044;-75
2022/10/03 02:03:14;;;;;;;26.38;6.10;;;20.50;65.10;;;;;;4878176;29;20104;-74
2022/10/03 02:05:59;;;;;;;20.42;5.13;;;20.50;65.10;;;;;;4878112;29;20068;-75
2022/10/03 02:08:45;;;;;;;22.88;7.03;;;20.50;65.80;;;;;;4878569;29;20037;-75
2022/10/03 02:11:27;;;;;;;25.73;6.03;;;20.60;65.30;;;;;;4879235;29;20493;-75
2022/10/03 02:14:11;;;;;;;28.48;6.53;;;20.60;65.30;;;;;;4878569;29;20033;-75
2022/10/03 02:16:56;;;;;;;21.80;5.80;;;20.60;65.80;;;;;;4862429;29;20068;-75
2022/10/03 02:20:03;;;;;;;21.73;6.82;;;20.60;65.70;;;;;;4879281;29;20029;-75
2022/10/03 02:22:41;;;;;;;31.83;9.20;;;20.60;65.80;;;;;;4843029;29;20034;-75
2022/10/03 02:25:30;;;;;;;29.15;7.70;;;20.60;65.90;;;;;;4857962;29;20401;-75
2022/10/03 02:28:36;;;;;;;33.40;9.05;;;20.60;65.70;;;;;;4872277;29;20033;-75
2022/10/03 02:31:31;;;;;;;27.25;7.60;;;20.60;65.90;;;;;;4878050;29;20037;-75
2022/10/03 02:34:24;;;;;;;28.95;7.57;;;20.60;65.80;;;;;;4869430;29;20041;-75
2022/10/03 02:37:24;;;;;;;24.67;7.32;;;20.70;65.80;;;;;;4877323;29;20065;-75
2022/10/03 02:40:18;;;;;;;;;;;20.70;65.70;;;;;;4878218;29;20107;-75
2022/10/03 02:43:16;;;;;;;25.38;7.05;;;20.70;65.70;;;;;;4877711;29;19912;-74
2022/10/03 02:45:57;;;;;;;25.88;7.30;;;20.70;65.70;;;;;;4858844;29;20147;-75
2022/10/03 02:48:58;;;;;;;24.58;7.25;;;20.70;65.90;;;;;;4878333;29;20060;-75
2022/10/03 02:51:43;;;;;;;22.92;6.13;;;20.70;65.80;;;;;;4877585;29;20088;-75
2022/10/03 02:54:17;;;;;;;21.45;6.43;;;20.70;65.80;;;;;;4877578;29;20124;-75
2022/10/03 02:57:16;;;;;;;25.42;7.63;;;20.70;65.90;;;;;;4876991;29;20029;-75
2022/10/03 03:00:04;;;;;;;25.02;7.50;;;20.70;66.20;;;;;;4878570;29;20025;-75
2022/10/03 03:02:57;;;;;;;26.02;7.30;;;20.70;66.40;;;;;;4878552;29;20040;-75
2022/10/03 03:05:53;;;;;;;31.15;8.88;;;20.70;66.40;;;;;;4860394;29;20042;-75
2022/10/03 03:08:24;;;;;;;25.35;8.13;;;20.70;66.50;;;;;;4859887;29;20065;-75
2022/10/03 03:11:08;;;;;;;27.90;9.07;;;20.70;66.60;;;;;;4859013;29;20120;-75
2022/10/03 03:13:54;;;;;;;24.98;7.38;;;20.70;66.50;;;;;;4859763;29;20041;-75
2022/10/03 03:16:45;;;;;;;27.35;7.43;;;20.70;66.70;;;;;;4858493;29;20041;-74
2022/10/03 03:19:39;;;;;;;23.85;6.60;;;20.70;66.60;;;;;;4859779;29;20036;-74
2022/10/03 03:22:20;;;;;;;25.13;7.72;;;20.70;66.60;;;;;;4859264;29;20051;-75
2022/10/03 03:25:24;;;;;;;21.35;7.13;;;20.70;66.70;;;;;;4878013;29;20037;-75
2022/10/03 03:28:14;;;;;;;23.80;7.30;;;20.70;66.70;;;;;;4874824;29;20041;-75
2022/10/03 03:30:52;;;;;;;24.33;7.50;;;20.70;66.80;;;;;;4878246;29;20057;-75
2022/10/03 03:33:51;;;;;;;22.95;7.30;;;20.70;66.70;;;;;;4877743;29;20041;-75
2022/10/03 03:36:53;;;;;;;22.70;6.88;;;20.70;66.70;;;;;;4876690;29;20052;-75
2022/10/03 03:39:56;;;;;;;25.38;7.82;;;20.70;66.90;;;;;;4860462;29;20037;-75
2022/10/03 03:42:40;;;;;;;18.65;6.28;;;20.70;66.70;;;;;;4858501;29;20399;-75
2022/10/03 03:45:39;;;;;;;23.95;6.97;;;20.70;66.90;;;;;;4865302;29;20037;-75
2022/10/03 03:48:24;;;;;;;;;;;20.70;66.80;;;;;;4876364;29;20572;-75
2022/10/03 03:51:15;;;;;;;19.85;6.15;;;20.70;66.70;;;;;;4876797;29;19912;-75
2022/10/03 03:54:12;;;;;;;21.48;6.82;;;20.70;66.50;;;;;;4876612;29;20041;-75
2022/10/03 03:56:54;;;;;;;18.80;6.15;;;20.70;66.70;;;;;;4858387;29;20104;-75
2022/10/03 03:59:32;;;;;;;24.98;6.88;;;20.70;66.80;;;;;;4873476;29;20045;-75
2022/10/03 04:02:10;;;;;;;21.40;7.25;;;20.70;66.50;;;;;;4873761;29;20061;-75
2022/10/03 04:05:14;;;;;;;19.00;6.25;;;20.70;66.70;;;;;;4873377;29;20124;-75
2022/10/03 04:08:11;;;;;;;17.58;6.32;;;20.70;67.10;;;;;;4859534;29;20034;-76
2022/10/03 04:10:48;;;;;;;22.98;6.60;;;20.70;66.60;;;;;;4859931;29;20072;-75
2022/10/03 04:13:38;;;;;;;20.80;6.72;;;20.70;66.20;;;;;;4875841;29;20402;-75
2022/10/03 04:16:10;;;;;;;;;;;20.70;66.70;;;;;;4878039;29;20296;-75
2022/10/03 04:19:14;;;;;;;19.92;6.57;;;20.70;66.60;;;;;;4877509;29;19959;-75
2022/10/03 04:21:58;;;;;;;19.85;5.93;;;20.70;66.60;;;;;;4862062;29;20043;-75
2022/10/03 04:25:16;;;;;;;21.83;6.57;;;20.70;66.50;;;;;;4876606;29;20045;-75
2022/10/03 04:28:11;;;;;;;20.23;6.25;;;20.70;66.70;;;;;;4876318;29;20056;-75
2022/10/03 04:30:45;;;;;;;21.35;6.05;;;20.70;66.10;;;;;;4877658;29;20088;-74
2022/10/03 04:33:29;;;;;;;24.67;6.40;;;20.70;66.20;;;;;;4877621;29;20073;-75
2022/10/03 04:36:13;;;;;;;15.95;6.00;;;20.70;66.50;;;;;;4891619;29;20037;-75
2022/10/03 04:38:43;;;;;;;21.23;6.68;;;20.70;66.50;;;;;;4878991;29;20494;-75
2022/10/03 04:41:44;;;;;;;17.58;5.65;;;20.70;66.30;;;;;;4880888;29;20089;-75
2022/10/03 04:44:14;;;;;;;20.77;6.07;;;20.70;66.80;;;;;;4859632;29;20045;-75
2022/10/03 04:46:49;;;;;;;20.75;5.97;;;20.70;66.40;;;;;;4873118;29;20044;-75
2022/10/03 04:49:42;;;;;;;16.80;5.32;;;20.70;66.60;;;;;;4881065;29;20044;-75
2022/10/03 04:52:27;;;;;;;18.17;5.65;;;20.70;66.60;;;;;;4880953;29;20530;-74
2022/10/03 04:54:59;;;;;;;19.15;5.68;;;20.70;66.40;;;;;;4879176;29;21195;-75
2022/10/03 04:57:47;;;;;;;17.83;5.95;;;20.70;66.30;;;;;;4880783;29;20077;-75
2022/10/03 05:00:43;;;;;;;19.88;6.07;;;20.70;66.60;;;;;;4880599;29;20538;-75
2022/10/03 05:03:32;;;;;;;16.85;5.45;;;20.70;66.70;;;;;;4891566;23;20037;-72
2022/10/03 05:06:04;;;;;;;17.70;5.43;;;20.70;66.40;;;;;;4888406;29;20378;-72
2022/10/03 05:09:03;;;;;;;22.17;5.63;;;20.70;66.40;;;;;;4881476;29;20112;-72
2022/10/03 05:12:05;;;;;;;18.45;5.78;;;20.70;66.50;;;;;;4880176;29;20057;-72
2022/10/03 05:15:01;;;;;;;16.15;5.55;;;20.70;66.40;;;;;;4879902;29;20036;-72
2022/10/03 05:17:52;;;;;;;16.13;5.38;;;20.70;66.60;;;;;;4880379;29;20033;-72
2022/10/03 05:20:36;;;;;;;22.25;6.20;;;20.70;66.40;;;;;;4869244;29;20445;-72
2022/10/03 05:23:28;;;;;;;16.83;5.88;;;20.70;66.30;;;;;;4861706;29;20034;-72
2022/10/03 05:26:10;;;;;;;18.42;5.75;;;20.70;66.60;;;;;;4860178;29;20118;-72
2022/10/03 05:28:52;;;;;;;18.40;6.00;;;20.70;66.20;;;;;;4861682;29;20029;-72
2022/10/03 05:31:45;;;;;;;19.92;6.25;;;20.70;66.20;;;;;;4861616;29;20038;-72
2022/10/03 05:34:33;;;;;;;19.13;5.88;;;20.70;66.30;;;;;;4861486;29;20025;-72
2022/10/03 05:37:24;;;;;;;16.65;5.20;;;20.70;66.10;;;;;;4861511;29;20033;-72
2022/10/03 05:40:01;;;;;;;20.05;6.15;;;20.70;66.20;;;;;;4861406;29;20033;-72
2022/10/03 05:42:52;;;;;;;17.90;5.65;;;20.70;66.40;;;;;;4861349;29;20037;-72
2022/10/03 05:45:35;;;;;;;18.90;5.45;;;20.70;66.70;;;;;;4868537;29;20029;-72
2022/10/03 05:48:44;;;;;;;17.25;5.35;;;20.70;66.80;;;;;;4879818;29;20525;-72
2022/10/03 05:51:54;;;;;;;18.05;5.82;;;20.70;66.60;;;;;;4879822;29;20029;-72
2022/10/03 05:54:29;;;;;;;;;;;20.70;66.80;;;;;;4876857;29;20128;-72
2022/10/03 05:57:13;;;;;;;16.75;5.43;;;20.70;66.80;;;;;;4879307;29;19922;-72
2022/10/03 05:59:47;;;;;;;17.15;5.57;;;20.70;66.80;;;;;;4879676;29;20033;-72
2022/10/03 06:02:37;;;;;;;16.63;5.60;;;20.70;66.80;;;;;;4894289;29;20037;-72
2022/10/03 06:05:33;;;;;;;15.45;5.70;;;20.70;66.80;;;;;;4879368;29;20045;-72
2022/10/03 06:08:21;;;;;;;17.00;6.03;;;20.70;66.90;;;;;;4893953;29;20041;-72
2022/10/03 06:11:24;;;;;;;14.93;5.43;;;20.70;67.00;;;;;;4877756;29;20040;-73
2022/10/03 06:14:17;;;;;;;21.67;5.63;;;20.70;67.00;;;;;;4879538;29;20041;-72
2022/10/03 06:16:50;;;;;;;18.95;5.55;;;20.70;67.00;;;;;;4879210;29;20036;-72
2022/10/03 06:19:34;;;;;;;13.57;5.10;;;20.70;67.00;;;;;;4879225;29;20029;-72
2022/10/03 06:22:49;;;;;;;15.73;5.07;;;20.70;66.90;;;;;;4879375;29;20029;-72
2022/10/03 06:25:47;;;;;;;16.95;5.18;;;20.70;66.90;;;;;;4878870;29;20055;-72
2022/10/03 06:28:34;;;;;;;17.88;5.63;;;20.70;66.90;;;;;;4878240;29;20037;-72
2022/10/03 06:31:46;;;;;;;13.63;5.20;;;20.70;66.80;;;;;;4878133;29;20029;-72
2022/10/03 06:34:41;;;;;;;19.63;6.07;;;20.70;66.70;;;;;;4878938;29;20036;-73
2022/10/03 06:37:13;;;;;;;17.70;5.22;;;20.70;66.90;;;;;;4870007;29;20045;-72
2022/10/03 06:40:06;;;;;;;14.98;5.18;;;20.70;66.80;;;;;;4878802;29;20036;-72
2022/10/03 06:42:53;;;;;;;18.10;4.93;;;20.70;66.80;;;;;;4879187;29;20025;-72
2022/10/03 06:45:37;;;;;;;15.95;4.60;;;20.70;66.80;;;;;;4892227;29;20037;-73
2022/10/03 06:48:32;;;;;;;16.27;5.30;;;20.70;67.00;;;;;;4878815;29;20172;-72
2022/10/03 06:51:30;;;;;;;14.57;4.50;;;20.70;67.20;;;;;;4878956;29;20041;-72
2022/10/03 06:54:11;;;;;;;15.35;4.97;;;20.70;67.80;;;;;;4878562;29;20173;-72
2022/10/03 06:56:48;;;;;;;19.02;5.30;;;20.70;67.20;;;;;;4878678;29;20032;-73
2022/10/03 06:59:44;;;;;;;15.68;4.90;;;20.70;67.30;;;;;;4862193;29;20124;-73
2022/10/03 07:02:36;;;;;;;17.90;5.88;;;20.70;67.40;;;;;;4891853;29;20400;-73
2022/10/03 07:05:27;;;;;;;15.10;4.90;;;20.70;67.60;;;;;;4877745;29;20410;-73
2022/10/03 07:08:27;;;;;;;16.83;5.40;;;20.70;67.60;;;;;;4861843;29;20041;-71
2022/10/03 07:11:08;;;;;;;19.13;5.78;;;20.70;67.30;;;;;;4876137;29;20052;-72
2022/10/03 07:13:57;;;;;;;11.80;4.43;;;20.60;67.10;;;;;;4878304;29;20069;-73
2022/10/03 07:16:45;;;;;;;15.23;4.80;;;20.70;66.90;;;;;;4892154;29;20444;-72
2022/10/03 07:19:48;;;;;;;13.98;5.00;;;20.70;66.90;;;;;;4877910;29;20085;-73
2022/10/03 07:22:46;;;;;;;15.63;5.03;;;20.70;67.20;;;;;;4878134;29;20036;-72
2022/10/03 07:25:50;;;;;;;14.07;4.97;;;20.70;67.00;;;;;;4860749;29;20414;-73
2022/10/03 07:28:40;;;;;;;15.63;4.72;;;20.70;67.30;;;;;;4878089;29;20037;-71
2022/10/03 07:31:26;;;;;;;15.48;4.60;;;20.70;67.60;;;;;;4876484;29;20037;-72
2022/10/03 07:33:51;;;;;;;14.95;5.22;;;20.70;67.20;;;;;;4860372;29;20057;-71
2022/10/03 07:39:44;;;;;;;17.88;4.82;;;20.70;67.20;;;;;;4877708;29;20486;-72
2022/10/03 07:42:40;;;;;;;12.30;4.40;;;20.70;67.30;;;;;;4876808;29;20032;-71
2022/10/03 07:45:17;;;;;;;16.38;5.90;;;20.70;68.00;;;;;;4877339;29;20036;-72
2022/10/03 07:48:05;;;;;;;15.02;4.95;;;20.70;69.30;;;;;;4877706;29;20037;-71
2022/10/03 07:50:52;;;;;;;15.52;5.05;;;20.70;69.50;;;;;;4876253;29;20064;-71
2022/10/03 07:53:30;;;;;;;17.38;4.82;;;20.70;69.90;;;;;;4877534;29;20029;-72
2022/10/03 07:56:33;;;;;;;16.75;5.20;;;20.70;68.50;;;;;;4877369;29;20033;-71
2022/10/03 07:59:20;;;;;;;15.95;4.80;;;20.70;68.90;;;;;;4876482;29;20069;-72
2022/10/03 08:02:10;;;;;;;16.45;4.97;;;20.70;68.80;;;;;;4875172;29;20398;-71
2022/10/03 08:05:14;;;;;;;18.95;5.20;;;20.70;68.40;;;;;;4877235;29;20049;-71
2022/10/03 08:08:21;;;;;;;16.95;4.65;;;20.70;68.40;;;;;;4877384;29;20080;-71
2022/10/03 08:11:14;;;;;;;12.80;4.70;;;20.70;67.60;;;;;;4874213;29;20398;-72
2022/10/03 08:14:11;;;;;;;22.00;4.72;;;20.70;68.00;;;;;;4879709;29;20545;-72
2022/10/03 08:17:07;;;;;;;10.82;4.43;;;20.70;68.40;;;;;;4880655;29;20390;-72
2022/10/03 08:20:11;;;;;;;13.13;4.50;;;20.70;67.90;;;;;;4880164;29;20056;-71
2022/10/03 08:23:11;;;;;;;30.45;5.63;;;20.70;68.30;;;;;;4877679;29;20045;-75
2022/10/03 08:26:16;;;;;;;16.95;4.70;;;20.70;68.50;;;;;;4875184;29;20049;-71
2022/10/03 08:29:14;;;;;;;28.63;5.00;;;20.70;67.30;;;;;;4891350;29;20029;-70
2022/10/03 08:32:10;;;;;;;19.33;4.65;;;20.80;67.70;;;;;;4897277;29;20037;-72
2022/10/03 08:35:13;;;;;;;23.42;5.50;;;20.80;68.50;;;;;;4895038;29;20052;-72
2022/10/03 08:38:17;;;;;;;19.17;5.13;;;20.90;68.70;;;;;;4889261;29;20039;-74
2022/10/03 08:40:45;;;;;;;21.30;6.00;;;20.90;68.90;;;;;;4887504;29;20075;-73
2022/10/03 08:43:29;;;;;;;20.25;5.75;;;20.90;70.00;;;;;;4892235;29;20025;-72
2022/10/03 08:46:03;;;;;;;21.90;4.80;;;20.90;70.40;;;;;;4884863;29;20025;-76
2022/10/03 08:48:57;;;;;;;18.55;5.35;;;20.90;70.20;;;;;;4879228;29;20102;-75
2022/10/03 08:51:41;;;;;;;19.45;4.95;;;20.90;70.50;;;;;;4879254;29;20032;-72
2022/10/03 08:54:26;;;;;;;17.02;4.75;;;20.90;70.40;;;;;;4879366;29;20040;-74
2022/10/03 08:57:06;;;;;;;20.48;5.00;;;20.90;69.90;;;;;;4893269;29;20025;-71
2022/10/03 08:59:37;;;;;;;23.13;4.60;;;20.90;70.10;;;;;;4888862;29;20498;-71
2022/10/03 09:02:28;;;;;;;32.53;5.65;;;21.00;70.20;;;;;;4872303;29;20029;-73
2022/10/03 09:05:16;;;;;;;29.15;5.57;;;20.90;70.20;;;;;;4884610;29;20065;-73
2022/10/03 09:08:33;;;;;;;22.50;4.85;;;20.90;70.20;;;;;;4896130;29;20101;-72
2022/10/03 09:11:20;;;;;;;23.42;5.20;;;21.00;70.60;;;;;;4873527;29;20127;-71
2022/10/03 09:14:16;;;;;;;14.80;4.43;;;20.90;70.30;;;;;;4879971;29;20071;-72
2022/10/03 09:17:21;;;;;;;17.33;4.80;;;20.90;69.20;;;;;;4904437;29;20029;-72
2022/10/03 09:20:34;;;;;;;20.30;4.40;;;20.80;69.40;;;;;;4865103;29;20056;-72
2022/10/03 09:23:37;;;;;;;17.23;4.63;;;20.80;69.20;;;;;;4844128;29;20094;-72
2022/10/03 09:26:34;;;;;;;16.33;4.93;;;20.80;69.30;;;;;;4879083;29;20060;-71
2022/10/03 09:29:20;;;;;;;21.88;4.43;;;20.80;69.60;;;;;;4882741;29;20539;-72
2022/10/03 09:32:02;;;;;;;21.05;5.18;;;20.80;69.60;;;;;;4877681;29;20052;-73
2022/10/03 09:34:46;;;;;;;20.73;5.45;;;20.80;69.40;;;;;;4891047;29;20486;-73
2022/10/03 09:37:31;;;;;;;15.82;4.80;;;20.80;69.70;;;;;;4876284;29;20021;-72
2022/10/03 09:40:17;;;;;;;16.88;5.53;;;20.80;69.60;;;;;;4876330;29;20375;-70
2022/10/03 09:43:18;;;;;;;16.77;4.80;;;20.80;69.80;;;;;;4874501;29;20486;-71
2022/10/03 09:46:05;;;;;;;22.17;5.18;;;20.80;69.30;;;;;;4871555;29;20040;-72
2022/10/03 09:48:43;;;;;;;23.15;4.68;;;20.90;69.80;;;;;;4875048;29;20056;-72
2022/10/03 09:51:30;;;;;;;17.75;4.68;;;20.90;70.00;;;;;;4905359;29;20482;-71
2022/10/03 09:53:56;;;;;;;16.13;5.03;;;20.90;69.80;;;;;;4870476;29;20037;-70
2022/10/03 09:56:25;;;;;;;13.23;4.43;;;21.00;70.90;;;;;;4875723;29;20033;-70
2022/10/03 09:59:27;;;;;;;17.77;5.05;;;21.00;70.60;;;;;;4876304;29;20084;-70
2022/10/03 10:02:32;;;;;;;18.17;5.75;;;21.00;71.40;;;;;;4875238;29;20097;-72
2022/10/03 10:05:54;;;;;;;18.85;5.47;;;21.00;71.10;;;;;;4875998;29;20486;-71
2022/10/03 10:09:00;;;;;;;22.90;7.97;;;20.90;70.20;;;;;;4871043;29;20040;-71
2022/10/03 10:11:32;;;;;;;18.48;6.10;;;20.80;68.00;;;;;;4872152;29;20025;-72
2022/10/03 10:14:35;;;;;;;19.90;7.38;;;20.80;67.80;;;;;;4876839;29;20041;-71
2022/10/03 10:17:10;;;;;;;17.40;6.60;;;20.80;67.10;;;;;;4880053;29;20024;-70
2022/10/03 10:19:36;;;;;;;23.35;7.53;;;20.80;67.40;;;;;;4883494;29;20035;-71
2022/10/03 10:22:20;;;;;;;27.10;7.45;;;20.80;67.60;;;;;;4884331;29;20213;-71
2022/10/03 10:25:11;;;;;;;22.52;7.07;;;20.90;67.60;;;;;;4871294;29;20549;-71
2022/10/03 10:28:08;;;;;;;26.67;6.68;;;20.90;67.80;;;;;;4886451;29;20037;-70
2022/10/03 10:31:08;;;;;;;20.15;7.18;;;20.90;67.80;;;;;;4871745;29;20037;-70
2022/10/03 10:34:02;;;;;;;23.58;6.70;;;21.00;67.80;;;;;;4875756;29;20506;-71
2022/10/03 10:36:43;;;;;;;24.15;7.38;;;21.00;67.90;;;;;;4879367;29;20035;-70
2022/10/03 10:39:26;;;;;;;33.45;6.40;;;21.00;68.20;;;;;;4884656;29;20371;-70
2022/10/03 10:42:49;;;;;;;36.20;7.15;;;21.10;68.80;;;;;;4879838;29;20367;-70
2022/10/03 10:46:00;;;;;;;45.78;7.05;;;21.10;68.50;;;;;;4831998;29;20038;-71
2022/10/03 10:48:47;;;;;;;26.75;6.07;;;21.10;67.80;;;;;;4836454;29;20120;-71
2022/10/03 10:51:41;;;;;;;25.60;6.40;;;21.00;66.70;;;;;;4876054;29;20041;-71
2022/10/03 10:54:40;;;;;;;25.33;6.07;;;21.00;66.70;;;;;;4875827;29;20029;-71
2022/10/03 10:57:24;;;;;;;17.27;5.72;;;21.00;67.40;;;;;;4874491;29;20524;-71
2022/10/03 11:00:18;;;;;;;20.83;6.32;;;21.00;67.40;;;;;;4875216;29;20033;-71
2022/10/03 11:03:08;;;;;;;17.23;6.30;;;20.90;67.60;;;;;;4874124;29;20029;-71
2022/10/03 11:06:08;;;;;;;16.55;5.43;;;20.90;67.70;;;;;;4873443;29;20133;-71
2022/10/03 11:09:09;;;;;;;22.73;6.28;;;20.90;67.60;;;;;;4875494;29;20033;-71
2022/10/03 11:12:12;;;;;;;18.00;5.78;;;20.90;67.50;;;;;;4875597;29;20092;-71
2022/10/03 11:15:26;;;;;;;19.98;5.78;;;20.90;67.60;;;;;;4873142;29;20044;-71
2022/10/03 11:17:57;;;;;;;19.55;6.53;;;20.90;67.80;;;;;;4868959;29;20041;-71
2022/10/03 11:20:48;;;;;;;26.75;6.38;;;20.90;68.60;;;;;;4857679;29;20200;-71
2022/10/03 11:23:46;;;;;;;18.00;5.63;;;21.00;68.60;;;;;;4877501;29;20033;-70
2022/10/03 11:26:39;;;;;;;49.47;36.03;;;21.00;68.90;;;;;;4922249;23;20063;-72
2022/10/03 11:29:27;;;;;;;39.88;25.17;;;21.10;70.90;;;;;;4910060;29;20454;-71
2022/10/03 11:32:24;;;;;;;40.92;26.70;;;21.10;70.20;;;;;;4909642;29;20028;-71
2022/10/03 11:35:21;;;;;;;33.60;17.02;;;21.10;72.80;;;;;;4913965;29;20036;-72
2022/10/03 11:38:07;;;;;;;28.27;15.27;;;21.20;72.90;;;;;;4917722;29;20080;-71
2022/10/03 11:40:55;;;;;;;31.20;15.95;;;21.10;72.20;;;;;;4929023;29;20518;-71
2022/10/03 11:43:42;;;;;;;27.08;14.07;;;21.10;71.80;;;;;;4921477;29;20036;-71
2022/10/03 11:46:22;;;;;;;28.95;14.82;;;21.20;71.60;;;;;;4918877;29;20032;-72
2022/10/03 11:49:09;;;;;;;32.75;14.30;;;21.20;71.60;;;;;;4906682;29;20044;-72
2022/10/03 11:52:02;;;;;;;31.95;15.15;;;21.20;71.60;;;;;;4913913;29;20043;-72
2022/10/03 11:54:33;;;;;;;33.72;13.90;;;21.20;72.00;;;;;;4909050;29;20032;-72
2022/10/03 11:57:03;;;;;;;31.85;12.82;;;21.20;70.70;;;;;;4897755;29;20036;-72
2022/10/03 11:59:35;;;;;;;26.25;12.60;;;21.20;71.10;;;;;;4908944;29;20035;-72
2022/10/03 12:02:54;;;;;;;31.90;12.43;;;21.30;71.40;;;;;;4912876;29;20028;-72
2022/10/03 12:08:53;;;;;;;31.95;12.65;;;21.20;71.10;;;;;;4885869;29;20498;-71
2022/10/03 12:08:56;;;;;;;32.78;12.35;;;21.20;71.00;;;;;;4895782;29;20122;-72
2022/10/03 12:11:50;;;;;;;22.98;11.35;;;21.10;71.60;;;;;;4910834;29;20032;-72
2022/10/03 12:14:31;;;;;;;23.98;11.25;;;21.10;71.10;;;;;;4894019;29;20382;-72
2022/10/03 12:17:15;;;;;;;20.67;11.00;;;21.10;70.90;;;;;;4910792;29;20063;-72
2022/10/03 12:20:19;;;;;;;28.77;11.75;;;21.10;70.50;;;;;;4911196;29;20048;-72
2022/10/03 12:23:02;;;;;;;22.20;11.25;;;21.10;70.40;;;;;;4911562;29;20485;-72
2022/10/03 12:25:33;;;;;;;27.33;11.57;;;21.10;70.30;;;;;;4921994;29;20035;-72
2022/10/03 12:28:23;;;;;;;26.75;10.25;;;21.10;71.10;;;;;;4916641;29;20460;-71
2022/10/03 12:30:59;;;;;;;27.75;11.05;;;21.00;70.30;;;;;;4918321;29;20374;-72
2022/10/03 12:33:53;;;;;;;20.95;10.30;;;21.10;70.60;;;;;;4891023;29;20433;-72
2022/10/03 12:36:26;;;;;;;22.38;10.05;;;21.10;70.30;;;;;;4912378;29;20050;-72
2022/10/03 12:39:25;;;;;;;20.60;10.30;;;21.10;70.80;;;;;;4915010;29;20028;-71
2022/10/03 12:41:51;;;;;;;23.27;10.25;;;21.10;70.60;;;;;;4917022;29;20028;-72
2022/10/03 12:44:29;;;;;;;22.40;9.82;;;21.10;70.60;;;;;;4928658;29;20096;-72
2022/10/03 12:46:55;;;;;;;19.55;9.48;;;21.10;70.50;;;;;;4915820;29;20028;-72
2022/10/03 12:49:39;;;;;;;18.73;9.35;;;21.10;70.50;;;;;;4899418;29;20048;-72
2022/10/03 12:52:20;;;;;;;22.27;9.38;;;21.10;70.60;;;;;;4916362;29;20038;-73
2022/10/03 12:54:57;;;;;;;22.83;9.45;;;21.10;70.40;;;;;;4917401;29;20036;-72
2022/10/03 12:57:38;;;;;;;21.05;9.43;;;21.00;70.90;;;;;;4909643;29;20032;-72
2022/10/03 13:00:13;;;;;;;19.30;9.20;;;21.00;70.30;;;;;;4910231;29;20024;-72
2022/10/03 13:02:44;;;;;;;18.15;8.40;;;21.10;70.40;;;;;;4912892;29;20032;-73
2022/10/03 13:05:29;;;;;;;22.08;9.30;;;21.10;70.60;;;;;;4916115;29;20048;-73
2022/10/03 13:08:26;;;;;;;21.90;8.43;;;21.10;70.60;;;;;;4913542;29;20172;-72
2022/10/03 13:11:09;;;;;;;22.33;8.68;;;21.10;70.70;;;;;;4898852;29;20425;-73
2022/10/03 13:13:54;;;;;;;20.05;8.90;;;21.10;70.60;;;;;;4918529;29;20040;-74
2022/10/03 13:16:31;;;;;;;22.02;8.95;;;21.00;69.40;;;;;;4928316;29;20079;-72
2022/10/03 13:19:13;;;;;;;24.70;8.68;;;21.00;70.00;;;;;;4932265;29;20042;-72
2022/10/03 13:21:51;;;;;;;22.33;8.68;;;21.00;69.20;;;;;;4927524;29;20030;-72
2022/10/03 13:24:21;;;;;;;29.63;8.48;;;21.10;69.00;;;;;;4916806;29;20563;-74
2022/10/03 13:27:03;;;;;;;21.98;8.40;;;21.10;69.40;;;;;;4927185;29;20133;-72
2022/10/03 13:29:37;;;;;;;23.10;8.63;;;21.10;69.90;;;;;;4922603;29;20036;-72
2022/10/03 13:32:19;;;;;;;22.35;9.73;;;21.10;69.60;;;;;;4931213;29;20111;-73
2022/10/03 13:35:57;;;;;;;26.02;8.68;;;21.10;69.70;;;;;;4926542;29;20066;-72
2022/10/03 13:38:17;;;;;;;20.17;8.35;;;21.10;70.50;;;;;;4914455;29;20489;-72
2022/10/03 13:40:52;;;;;;;25.55;8.23;;;21.10;70.20;;;;;;4916568;29;20437;-72
2022/10/03 13:43:26;;;;;;;23.63;8.65;;;21.10;70.30;;;;;;4923209;29;20055;-73
2022/10/03 13:45:55;;;;;;;22.63;7.63;;;21.10;70.00;;;;;;4911501;29;20020;-72
2022/10/03 13:48:28;;;;;;;23.10;8.02;;;21.10;69.80;;;;;;4923760;29;20063;-72
2022/10/03 13:51:26;;;;;;;32.60;8.23;;;21.10;69.80;;;;;;4904606;29;20032;-72
2022/10/03 13:53:51;;;;;;;33.95;9.93;;;21.20;70.20;;;;;;4891336;29;20068;-72
2022/10/03 13:56:23;;;;;;;22.40;8.70;;;21.20;69.00;;;;;;4911427;29;20078;-72
2022/10/03 13:58:57;;;;;;;21.02;8.00;;;21.20;69.60;;;;;;4919013;29;20052;-72
2022/10/03 14:01:41;;;;;;;21.30;7.72;;;21.10;69.00;;;;;;4913207;29;20030;-72
2022/10/03 14:04:24;;;;;;;21.00;8.35;;;21.10;68.90;;;;;;4914059;29;20047;-72
2022/10/03 14:07:11;;;;;;;15.75;7.47;;;21.10;69.20;;;;;;4913145;29;20042;-72
2022/10/03 14:09:59;;;;;;;17.52;8.02;;;21.10;68.90;;;;;;4921666;29;20457;-72
2022/10/03 14:12:47;;;;;;;18.45;7.93;;;21.00;69.10;;;;;;4897832;29;20047;-73
2022/10/03 14:15:34;;;;;;;21.20;8.13;;;21.00;69.00;;;;;;4912183;29;20044;-73
2022/10/03 14:18:16;;;;;;;20.00;7.60;;;21.00;69.10;;;;;;4919172;29;20055;-73
2022/10/03 14:21:13;;;;;;;18.58;8.15;;;21.00;69.20;;;;;;4916210;29;20075;-72
2022/10/03 14:23:53;;;;;;;18.85;8.82;;;21.00;68.70;;;;;;4912674;29;20036;-72
2022/10/03 14:26:34;;;;;;;;;;;21.00;69.30;;;;;;4889415;29;20032;-73
2022/10/03 14:29:07;;;;;;;19.00;8.27;;;21.00;69.20;;;;;;4922323;29;19959;-73